createdAt,value
2023-01-17T00:02:21.574Z,4.57
2023-01-17T00:05:07.011Z,4.48
2023-01-17T00:07:52.388Z,4.45
2023-01-17T00:10:22.310Z,4.38
2023-01-17T00:12:59.489Z,4.32
2023-01-17T00:15:28.610Z,4.24
2023-01-17T00:17:56.434Z,4.21
2023-01-17T00:20:45.760Z,4.16
2023-01-17T00:24:00.692Z,4.11
2023-01-17T00:26:29.737Z,4.05
2023-01-17T00:28:56.579Z,4.03
2023-01-17T00:31:23.481Z,4.06
2023-01-17T00:33:50.405Z,4.11
2023-01-17T00:36:17.272Z,4.15
2023-01-17T00:38:44.213Z,4.18
2023-01-17T00:41:13.311Z,4.21
2023-01-17T00:43:59.305Z,4.23
2023-01-17T00:46:45.442Z,4.27
2023-01-17T00:49:30.792Z,4.31
2023-01-17T00:52:16.217Z,4.30
2023-01-17T00:55:01.561Z,4.27
2023-01-17T00:57:47.038Z,4.25
2023-01-17T01:00:33.203Z,4.26
2023-01-17T01:03:18.655Z,4.27
2023-01-17T01:06:04.169Z,4.31
2023-01-17T01:08:49.443Z,4.34
2023-01-17T01:11:38.213Z,4.34
2023-01-17T01:14:26.587Z,4.32
2023-01-17T01:17:11.981Z,4.27
2023-01-17T01:19:57.211Z,4.20
2023-01-17T01:22:42.685Z,4.15
2023-01-17T01:25:27.973Z,4.09
2023-01-17T01:28:24.583Z,4.09
2023-01-17T01:31:10.021Z,4.06
2023-01-17T01:33:37.075Z,4.06
2023-01-17T01:36:07.044Z,4.06
2023-01-17T01:38:34.005Z,4.05
2023-01-17T01:41:01.020Z,4.05
2023-01-17T01:43:51.032Z,4.06
2023-01-17T01:46:31.324Z,4.06
2023-01-17T01:49:02.106Z,4.03
2023-01-17T01:51:42.374Z,3.99
2023-01-17T01:54:23.339Z,3.95
2023-01-17T01:56:51.889Z,3.93
2023-01-17T01:59:20.661Z,3.91
2023-01-17T02:01:49.466Z,3.93
2023-01-17T02:04:18.316Z,3.98
2023-01-17T02:06:53.562Z,4.06
2023-01-17T02:09:20.624Z,4.13
2023-01-17T02:11:49.168Z,4.16
2023-01-17T02:14:21.529Z,4.19
2023-01-17T02:16:54.524Z,4.21
2023-01-17T02:19:27.300Z,4.24
2023-01-17T02:22:09.414Z,4.29
2023-01-17T02:24:51.481Z,4.32
2023-01-17T02:27:26.326Z,4.36
2023-01-17T02:30:18.291Z,4.38
2023-01-17T02:33:27.096Z,4.40
2023-01-17T02:36:03.553Z,4.38
2023-01-17T02:38:36.702Z,4.36
2023-01-17T02:41:13.329Z,4.33
2023-01-17T02:43:40.898Z,4.30
2023-01-17T02:46:09.820Z,4.31
2023-01-17T02:48:38.087Z,4.29
2023-01-17T02:51:26.487Z,4.28
2023-01-17T02:54:08.688Z,4.27
2023-01-17T02:57:13.422Z,4.28
2023-01-17T02:59:53.185Z,4.29
2023-01-17T03:02:26.239Z,4.33
2023-01-17T03:05:22.655Z,4.34
2023-01-17T03:07:51.684Z,4.36
2023-01-17T03:10:20.472Z,4.42
2023-01-17T03:12:47.600Z,4.46
2023-01-17T03:15:17.106Z,4.50
2023-01-17T03:17:48.773Z,4.53
2023-01-17T03:20:16.305Z,4.56
2023-01-17T03:22:43.293Z,4.59
2023-01-17T03:25:10.370Z,4.62
2023-01-17T03:27:37.307Z,4.67
2023-01-17T03:30:04.875Z,4.70
2023-01-17T03:32:31.817Z,4.73
2023-01-17T03:34:58.708Z,4.75
2023-01-17T03:37:25.829Z,4.78
2023-01-17T03:39:52.762Z,4.82
2023-01-17T03:42:19.713Z,4.87
2023-01-17T03:44:46.644Z,4.88
2023-01-17T03:47:13.615Z,4.88
2023-01-17T03:49:40.669Z,4.86
2023-01-17T03:52:07.656Z,4.83
2023-01-17T03:54:34.586Z,4.82
2023-01-17T03:57:01.515Z,4.80
2023-01-17T03:59:28.509Z,4.79
2023-01-17T04:01:55.481Z,4.80
2023-01-17T04:04:22.572Z,4.85
2023-01-17T04:06:49.512Z,4.97
2023-01-17T04:09:16.470Z,5.09
2023-01-17T04:11:43.478Z,5.19
2023-01-17T04:14:10.459Z,5.27
2023-01-17T04:16:38.233Z,5.32
2023-01-17T04:19:05.299Z,5.38
2023-01-17T04:21:32.308Z,5.43
2023-01-17T04:23:59.356Z,5.46
2023-01-17T04:26:26.354Z,5.47
2023-01-17T04:28:53.351Z,5.46
2023-01-17T04:31:20.428Z,5.51
2023-01-17T04:33:47.434Z,5.52
2023-01-17T04:36:14.386Z,5.58
2023-01-17T04:38:41.338Z,5.62
2023-01-17T04:41:08.290Z,5.64
2023-01-17T04:43:35.629Z,5.65
2023-01-17T04:46:04.385Z,5.65
2023-01-17T04:48:31.477Z,5.64
2023-01-17T04:51:03.340Z,5.60
2023-01-17T04:53:30.713Z,5.58
2023-01-17T04:55:57.823Z,5.54
2023-01-17T04:58:24.838Z,5.50
2023-01-17T05:00:52.231Z,5.48
2023-01-17T05:03:21.089Z,5.44
2023-01-17T05:05:48.483Z,5.39
2023-01-17T05:08:15.453Z,5.35
2023-01-17T05:10:45.759Z,5.31
2023-01-17T05:13:12.779Z,5.28
2023-01-17T05:15:39.946Z,5.25
2023-01-17T05:18:11.094Z,5.21
2023-01-17T05:20:38.031Z,5.18
2023-01-17T05:23:05.154Z,5.16
2023-01-17T05:25:32.954Z,5.13
2023-01-17T05:28:00.314Z,5.08
2023-01-17T05:30:32.764Z,5.02
2023-01-17T05:32:59.773Z,5.00
2023-01-17T05:35:29.738Z,4.98
2023-01-17T05:37:56.750Z,4.96
2023-01-17T05:40:30.294Z,4.95
2023-01-17T05:42:58.685Z,4.92
2023-01-17T05:45:27.608Z,4.91
2023-01-17T05:47:55.917Z,4.87
2023-01-17T05:50:26.244Z,4.82
2023-01-17T05:52:58.980Z,4.75
2023-01-17T05:55:27.668Z,4.70
2023-01-17T05:57:55.200Z,4.59
2023-01-17T06:00:23.055Z,4.53
2023-01-17T06:02:53.103Z,4.44
2023-01-17T06:05:20.798Z,4.32
2023-01-17T06:07:48.879Z,4.25
2023-01-17T06:10:17.544Z,4.21
2023-01-17T06:12:45.442Z,4.18
2023-01-17T06:15:14.003Z,4.14
2023-01-17T06:17:41.087Z,4.13
2023-01-17T06:20:09.910Z,4.13
2023-01-17T06:22:37.110Z,4.10
2023-01-17T06:25:04.622Z,4.06
2023-01-17T06:27:31.616Z,4.04
2023-01-17T06:29:58.518Z,4.01
2023-01-17T06:32:25.487Z,3.98
2023-01-17T06:34:52.447Z,3.97
2023-01-17T06:37:19.423Z,3.93
2023-01-17T06:39:46.608Z,3.86
2023-01-17T06:42:13.613Z,3.77
2023-01-17T06:44:40.595Z,3.73
2023-01-17T06:47:07.648Z,3.68
2023-01-17T06:49:34.553Z,3.65
2023-01-17T06:52:01.537Z,3.67
2023-01-17T06:54:28.530Z,3.70
2023-01-17T06:56:55.446Z,3.78
2023-01-17T06:59:22.344Z,3.88
2023-01-17T07:01:49.298Z,3.97
2023-01-17T07:04:16.349Z,4.06
2023-01-17T07:06:43.915Z,4.18
2023-01-17T07:09:11.023Z,4.31
2023-01-17T07:11:37.925Z,4.43
2023-01-17T07:14:05.136Z,4.58
2023-01-17T07:16:33.557Z,4.69
2023-01-17T07:19:00.658Z,4.81
2023-01-17T07:21:27.626Z,4.92
2023-01-17T07:23:55.019Z,5.02
2023-01-17T07:26:21.975Z,5.11
2023-01-17T07:28:48.910Z,5.19
2023-01-17T07:31:15.903Z,5.27
2023-01-17T07:33:42.907Z,5.34
2023-01-17T07:36:10.195Z,5.41
2023-01-17T07:38:37.316Z,5.45
2023-01-17T07:41:04.438Z,5.49
2023-01-17T07:43:31.611Z,5.52
2023-01-17T07:46:01.347Z,5.52
2023-01-17T07:48:30.278Z,5.54
2023-01-17T07:50:58.180Z,5.56
2023-01-17T07:53:27.129Z,5.59
2023-01-17T07:55:54.474Z,5.62
2023-01-17T07:58:21.785Z,5.63
2023-01-17T08:00:48.933Z,5.64
2023-01-17T08:03:17.287Z,5.63
2023-01-17T08:05:54.965Z,5.64
2023-01-17T08:08:21.966Z,5.62
2023-01-17T08:10:50.923Z,5.63
2023-01-17T08:13:17.927Z,5.64
2023-01-17T08:15:48.379Z,5.66
2023-01-17T08:18:16.480Z,5.69
2023-01-17T08:20:44.370Z,5.71
2023-01-17T08:23:11.875Z,5.76
2023-01-17T08:25:40.054Z,5.81
2023-01-17T08:28:07.035Z,5.88
2023-01-17T08:30:34.669Z,5.97
2023-01-17T08:33:01.628Z,6.02
2023-01-17T08:35:28.718Z,6.06
2023-01-17T08:37:55.963Z,6.08
2023-01-17T08:40:23.494Z,6.11
2023-01-17T08:42:59.243Z,6.26
2023-01-17T08:45:27.279Z,6.47
2023-01-17T08:47:54.640Z,6.58
2023-01-17T08:50:21.650Z,6.56
2023-01-17T08:52:49.793Z,6.48
2023-01-17T08:55:17.220Z,6.42
2023-01-17T08:57:44.200Z,6.35
2023-01-17T09:00:11.560Z,6.30
2023-01-17T09:02:38.511Z,6.28
2023-01-17T09:05:06.155Z,6.30
2023-01-17T09:07:33.165Z,6.33
2023-01-17T09:10:00.223Z,6.32
2023-01-17T09:12:31.699Z,6.35
2023-01-17T09:14:58.652Z,6.40
2023-01-17T09:17:25.770Z,6.49
2023-01-17T09:19:52.711Z,6.55
2023-01-17T09:22:19.783Z,6.63
2023-01-17T09:24:46.910Z,6.79
2023-01-17T09:27:13.890Z,7.05
2023-01-17T09:29:40.913Z,7.22
2023-01-17T09:32:07.922Z,7.31
2023-01-17T09:34:34.882Z,7.34
2023-01-17T09:37:01.864Z,7.33
2023-01-17T09:39:28.770Z,7.33
2023-01-17T09:42:15.999Z,7.43
2023-01-17T09:44:47.028Z,7.58
2023-01-17T09:47:35.846Z,7.64
2023-01-17T09:50:16.602Z,7.63
2023-01-17T09:52:44.271Z,7.64
2023-01-17T09:55:16.024Z,7.61
2023-01-17T09:58:12.903Z,7.53
2023-01-17T10:00:57.456Z,7.50
2023-01-17T10:03:55.815Z,7.54
2023-01-17T10:06:25.682Z,7.92
2023-01-17T10:09:07.543Z,8.35
2023-01-17T10:11:38.343Z,8.83
2023-01-17T10:14:11.328Z,9.18
2023-01-17T10:16:53.562Z,9.50
2023-01-17T10:19:44.921Z,9.63
2023-01-17T10:22:41.561Z,9.83
2023-01-17T10:25:15.652Z,10.01
2023-01-17T10:27:59.768Z,10.15
2023-01-17T10:30:36.135Z,10.35
2023-01-17T10:33:14.427Z,10.55
2023-01-17T10:35:59.230Z,10.75
2023-01-17T10:38:33.458Z,10.87
2023-01-17T10:41:06.942Z,11.18
2023-01-17T10:43:47.300Z,11.50
2023-01-17T10:46:18.562Z,11.96
2023-01-17T10:48:49.469Z,12.25
2023-01-17T10:51:42.491Z,12.45
2023-01-17T10:54:25.038Z,12.58
2023-01-17T10:56:52.119Z,12.58
2023-01-17T10:59:33.804Z,12.47
2023-01-17T11:02:06.960Z,12.62
2023-01-17T11:04:41.376Z,12.70
2023-01-17T11:07:25.957Z,12.48
2023-01-17T11:09:55.203Z,11.98
2023-01-17T11:12:44.549Z,11.83
2023-01-17T11:15:11.427Z,11.80
2023-01-17T11:17:46.046Z,11.84
2023-01-17T11:20:12.924Z,11.87
2023-01-17T11:22:42.693Z,11.76
2023-01-17T11:25:21.639Z,11.81
2023-01-17T11:28:04.550Z,11.79
2023-01-17T11:30:31.839Z,11.78
2023-01-17T11:33:00.295Z,11.79
2023-01-17T11:35:44.581Z,11.73
2023-01-17T11:38:19.089Z,11.72
2023-01-17T11:40:48.256Z,11.77
2023-01-17T11:43:24.314Z,11.84
2023-01-17T11:46:18.263Z,11.96
2023-01-17T11:48:55.860Z,12.01
2023-01-17T11:51:31.110Z,11.88
2023-01-17T11:54:42.086Z,11.74
2023-01-17T11:57:21.183Z,11.60
2023-01-17T11:59:48.782Z,11.67
2023-01-17T12:02:45.221Z,11.71
2023-01-17T12:05:39.404Z,11.75
2023-01-17T12:08:24.941Z,11.84
2023-01-17T12:11:01.128Z,11.80
2023-01-17T12:14:00.282Z,11.66
2023-01-17T12:16:48.644Z,11.48
2023-01-17T12:19:48.407Z,11.47
2023-01-17T12:22:54.161Z,11.45
2023-01-17T12:25:28.034Z,11.14
2023-01-17T12:28:25.841Z,11.08
2023-01-17T12:31:07.955Z,11.21
2023-01-17T12:33:52.913Z,11.37
2023-01-17T12:36:36.809Z,11.49
2023-01-17T12:39:09.598Z,11.57
2023-01-17T12:41:41.941Z,11.67
2023-01-17T12:44:13.140Z,11.62
2023-01-17T12:46:48.495Z,11.56
2023-01-17T12:49:38.444Z,11.48
2023-01-17T12:52:25.642Z,11.39
2023-01-17T12:55:00.099Z,11.33
2023-01-17T12:57:33.359Z,11.32
2023-01-17T13:00:19.796Z,11.32
2023-01-17T13:03:01.364Z,11.34
2023-01-17T13:05:41.390Z,11.40
2023-01-17T13:08:14.440Z,11.52
2023-01-17T13:10:55.221Z,11.55
2023-01-17T13:13:25.596Z,11.55
2023-01-17T13:16:36.274Z,11.48
2023-01-17T13:19:16.855Z,11.37
2023-01-17T13:21:46.939Z,11.23
2023-01-17T13:24:31.002Z,11.11
2023-01-17T13:27:31.938Z,10.94
2023-01-17T13:30:19.053Z,10.81
2023-01-17T13:33:23.023Z,10.71
2023-01-17T13:36:18.712Z,10.59
2023-01-17T13:39:07.087Z,10.43
2023-01-17T13:41:34.063Z,10.27
2023-01-17T13:44:22.201Z,10.12
2023-01-17T13:47:00.451Z,9.94
2023-01-17T13:49:36.411Z,9.84
2023-01-17T13:52:12.010Z,9.74
2023-01-17T13:54:48.927Z,9.68
2023-01-17T13:57:26.340Z,9.61
2023-01-17T13:59:56.569Z,9.54
2023-01-17T14:02:32.550Z,9.49
2023-01-17T14:05:22.522Z,9.40
2023-01-17T14:08:02.063Z,9.29
2023-01-17T14:10:32.058Z,9.21
2023-01-17T14:13:00.172Z,9.12
2023-01-17T14:15:29.394Z,9.05
2023-01-17T14:18:01.086Z,9.00
2023-01-17T14:20:46.390Z,8.92
2023-01-17T14:23:34.631Z,8.82
2023-01-17T14:26:18.175Z,8.71
2023-01-17T14:28:45.138Z,8.63
2023-01-17T14:31:15.075Z,8.54
2023-01-17T14:33:42.189Z,8.46
2023-01-17T14:36:22.228Z,8.37
2023-01-17T14:38:49.224Z,8.29
2023-01-17T14:41:23.195Z,8.20
2023-01-17T14:43:51.303Z,8.14
2023-01-17T14:46:31.731Z,8.08
2023-01-17T14:49:05.257Z,8.02
2023-01-17T14:51:34.674Z,7.94
2023-01-17T14:54:05.001Z,7.89
2023-01-17T14:56:32.560Z,7.84
2023-01-17T14:59:16.564Z,7.76
2023-01-17T15:02:06.270Z,7.69
2023-01-17T15:04:38.580Z,7.59
2023-01-17T15:07:06.214Z,7.49
2023-01-17T15:09:36.576Z,7.42
2023-01-17T15:12:07.313Z,7.33
2023-01-17T15:14:37.883Z,7.23
2023-01-17T15:17:10.058Z,7.16
2023-01-17T15:19:42.242Z,7.06
2023-01-17T15:22:10.165Z,6.96
2023-01-17T15:24:41.622Z,6.91
2023-01-17T15:27:14.761Z,6.86
2023-01-17T15:29:43.757Z,6.79
2023-01-17T15:32:18.730Z,6.74
2023-01-17T15:34:48.429Z,6.67
2023-01-17T15:37:32.004Z,6.60
2023-01-17T15:40:19.359Z,6.57
2023-01-17T15:42:53.461Z,6.52
2023-01-17T15:45:27.728Z,6.51
2023-01-17T15:47:58.590Z,6.48
2023-01-17T15:50:29.415Z,6.48
2023-01-17T15:53:05.037Z,6.46
2023-01-17T15:55:41.141Z,6.40
2023-01-17T15:58:27.198Z,6.37
2023-01-17T16:00:55.069Z,6.31
2023-01-17T16:03:30.288Z,6.28
2023-01-17T16:05:59.673Z,6.26
2023-01-17T16:08:31.995Z,6.24
2023-01-17T16:11:01.780Z,6.23
2023-01-17T16:13:31.491Z,6.21
2023-01-17T16:16:14.174Z,6.20
2023-01-17T16:18:41.664Z,6.18
2023-01-17T16:21:21.569Z,6.17
2023-01-17T16:23:49.211Z,6.16
2023-01-17T16:26:16.650Z,6.14
2023-01-17T16:28:43.890Z,6.14
2023-01-17T16:31:11.391Z,6.16
2023-01-17T16:33:38.920Z,6.18
2023-01-17T16:36:06.260Z,6.20
2023-01-17T16:38:33.283Z,6.18
2023-01-17T16:41:03.940Z,6.19
2023-01-17T16:43:30.995Z,6.18
2023-01-17T16:45:58.029Z,6.20
2023-01-17T16:48:25.094Z,6.22
2023-01-17T16:50:52.415Z,6.25
2023-01-17T16:53:24.709Z,6.27
2023-01-17T16:55:55.566Z,6.31
2023-01-17T16:58:23.021Z,6.35
2023-01-17T17:00:50.381Z,6.35
2023-01-17T17:03:19.466Z,6.37
2023-01-17T17:05:55.902Z,6.37
2023-01-17T17:08:23.688Z,6.39
2023-01-17T17:10:51.063Z,6.41
2023-01-17T17:13:18.089Z,6.44
2023-01-17T17:15:45.334Z,6.48
2023-01-17T17:18:17.258Z,6.49
2023-01-17T17:20:45.011Z,6.51
2023-01-17T17:23:12.059Z,6.50
2023-01-17T17:25:39.530Z,6.50
2023-01-17T17:28:06.585Z,6.49
2023-01-17T17:30:35.535Z,6.49
2023-01-17T17:33:05.637Z,6.47
2023-01-17T17:35:35.850Z,6.46
2023-01-17T17:38:04.910Z,6.46
2023-01-17T17:40:35.524Z,6.45
2023-01-17T17:43:02.466Z,6.45
2023-01-17T17:45:29.416Z,6.44
2023-01-17T17:47:56.452Z,6.45
2023-01-17T17:50:23.534Z,6.46
2023-01-17T17:52:50.474Z,6.44
2023-01-17T17:55:18.442Z,6.44
2023-01-17T17:57:45.639Z,6.42
2023-01-17T18:00:13.085Z,6.40
2023-01-17T18:02:40.108Z,6.37
2023-01-17T18:05:07.376Z,6.33
2023-01-17T18:07:34.408Z,6.29
2023-01-17T18:10:02.131Z,6.29
2023-01-17T18:12:29.125Z,6.25
2023-01-17T18:14:56.150Z,6.23
2023-01-17T18:17:23.232Z,6.21
2023-01-17T18:19:50.378Z,6.18
2023-01-17T18:22:17.316Z,6.16
2023-01-17T18:24:44.290Z,6.13
2023-01-17T18:27:11.236Z,6.12
2023-01-17T18:29:38.274Z,6.07
2023-01-17T18:32:05.351Z,6.07
2023-01-17T18:34:35.062Z,6.02
2023-01-17T18:37:02.147Z,5.97
2023-01-17T18:39:29.863Z,5.97
2023-01-17T18:41:58.173Z,5.93
2023-01-17T18:44:26.831Z,5.88
2023-01-17T18:46:55.222Z,5.84
2023-01-17T18:49:22.706Z,5.80
2023-01-17T18:51:52.264Z,5.76
2023-01-17T18:54:20.377Z,5.78
2023-01-17T18:56:51.199Z,5.81
2023-01-17T18:59:22.783Z,5.82
2023-01-17T19:01:53.283Z,5.81
2023-01-17T19:04:21.026Z,5.80
2023-01-17T19:06:49.144Z,5.80
2023-01-17T19:09:17.275Z,5.81
2023-01-17T19:11:46.760Z,5.81
2023-01-17T19:14:15.116Z,5.84
2023-01-17T19:16:43.803Z,5.83
2023-01-17T19:19:14.260Z,5.83
2023-01-17T19:21:42.356Z,5.81
2023-01-17T19:24:12.377Z,5.81
2023-01-17T19:26:43.015Z,5.75
2023-01-17T19:29:11.694Z,5.72
2023-01-17T19:31:44.466Z,5.68
2023-01-17T19:34:14.097Z,5.68
2023-01-17T19:36:44.851Z,5.69
2023-01-17T19:39:12.755Z,5.73
2023-01-17T19:41:44.783Z,5.73
2023-01-17T19:44:13.560Z,5.76
2023-01-17T19:46:41.393Z,5.77
2023-01-17T19:49:09.258Z,5.76
2023-01-17T19:51:38.718Z,5.76
2023-01-17T19:54:07.649Z,5.77
2023-01-17T19:56:35.716Z,5.75
2023-01-17T19:59:03.411Z,5.74
2023-01-17T20:01:33.222Z,5.75
2023-01-17T20:04:03.624Z,5.74
2023-01-17T20:06:35.795Z,5.76
2023-01-17T20:09:05.479Z,5.72
2023-01-17T20:11:33.325Z,5.73
2023-01-17T20:14:00.863Z,5.73
2023-01-17T20:16:30.823Z,5.70
2023-01-17T20:18:59.586Z,5.70
2023-01-17T20:21:28.578Z,5.71
2023-01-17T20:23:58.091Z,5.68
2023-01-17T20:26:35.292Z,5.69
2023-01-17T20:29:06.893Z,5.68
2023-01-17T20:31:37.776Z,5.63
2023-01-17T20:34:07.731Z,5.61
2023-01-17T20:36:36.395Z,5.58
2023-01-17T20:39:05.878Z,5.55
2023-01-17T20:41:45.063Z,5.55
2023-01-17T20:44:14.663Z,5.53
2023-01-17T20:46:42.749Z,5.54
2023-01-17T20:49:14.187Z,5.53
2023-01-17T20:51:43.543Z,5.51
2023-01-17T20:54:17.289Z,5.48
2023-01-17T20:56:46.762Z,5.48
2023-01-17T20:59:17.331Z,5.49
2023-01-17T21:01:45.601Z,5.48
2023-01-17T21:04:14.110Z,5.46
2023-01-17T21:06:42.804Z,5.46
2023-01-17T21:09:12.663Z,5.48
2023-01-17T21:11:40.084Z,5.50
2023-01-17T21:14:08.215Z,5.49
2023-01-17T21:16:36.131Z,5.49
2023-01-17T21:19:03.572Z,5.51
2023-01-17T21:21:30.922Z,5.51
2023-01-17T21:23:59.042Z,5.52
2023-01-17T21:26:28.080Z,5.55
2023-01-17T21:28:55.774Z,5.56
2023-01-17T21:31:28.560Z,5.58
2023-01-17T21:34:07.350Z,5.62
2023-01-17T21:36:38.062Z,5.64
2023-01-17T21:39:07.714Z,5.69
2023-01-17T21:41:37.650Z,5.72
2023-01-17T21:44:12.628Z,5.76
2023-01-17T21:46:40.675Z,5.78
2023-01-17T21:49:12.477Z,5.82
2023-01-17T21:51:52.367Z,5.82
2023-01-17T21:54:44.198Z,5.82
2023-01-17T21:57:31.906Z,5.83
2023-01-17T21:59:58.966Z,5.83
2023-01-17T22:02:26.122Z,5.84
2023-01-17T22:04:54.103Z,5.82
2023-01-17T22:07:21.460Z,5.78
2023-01-17T22:09:48.383Z,5.76
2023-01-17T22:12:15.341Z,5.73
2023-01-17T22:14:42.317Z,5.72
2023-01-17T22:17:09.283Z,5.70
2023-01-17T22:19:36.279Z,5.69
2023-01-17T22:22:03.448Z,5.66
2023-01-17T22:24:30.423Z,5.64
2023-01-17T22:26:57.471Z,5.62
2023-01-17T22:29:24.438Z,5.60
2023-01-17T22:31:51.375Z,5.59
2023-01-17T22:34:18.431Z,5.60
2023-01-17T22:36:45.493Z,5.59
2023-01-17T22:39:12.505Z,5.60
2023-01-17T22:41:39.644Z,5.61
2023-01-17T22:44:07.068Z,5.61
2023-01-17T22:46:39.962Z,5.61
2023-01-17T22:49:07.867Z,5.63
2023-01-17T22:51:35.286Z,5.61
2023-01-17T22:54:02.331Z,5.60
2023-01-17T22:56:31.907Z,5.59
2023-01-17T22:59:00.157Z,5.59
2023-01-17T23:01:32.243Z,5.57
2023-01-17T23:04:01.405Z,5.55
2023-01-17T23:06:30.760Z,5.54
2023-01-17T23:09:00.728Z,5.54
2023-01-17T23:11:41.774Z,5.55
2023-01-17T23:14:20.311Z,5.55
2023-01-17T23:17:09.285Z,5.54
2023-01-17T23:19:38.947Z,5.59
2023-01-17T23:22:15.610Z,5.66
2023-01-17T23:24:53.819Z,5.78
2023-01-17T23:28:00.721Z,5.86
2023-01-17T23:30:34.907Z,5.99
2023-01-17T23:33:04.621Z,6.10
2023-01-17T23:35:34.136Z,6.21
2023-01-17T23:38:19.531Z,6.29
2023-01-17T23:41:05.491Z,6.36
2023-01-17T23:43:33.527Z,6.46
2023-01-17T23:46:01.133Z,6.52
2023-01-17T23:48:28.532Z,6.58
2023-01-17T23:51:08.926Z,6.63
2023-01-17T23:53:37.974Z,6.74
2023-01-17T23:56:13.175Z,6.83
2023-01-17T23:58:40.220Z,6.87
